Time;durP1;ratioP1;P1;durP2;ratioP2;P2;SDS_P1;SDS_P2;PMS_P1;PMS_P2;Temp;Humidity;BMP_temperature;BMP_pressure;BME280_temperature;BME280_humidity;BME280_pressure;Samples;Min_cycle;Max_cycle;Signal;HPM_P1;HPM_P2
2023/04/25 00:01:17;;;;;;;14.07;3.20;;;8.20;99.90;;;;;;5072743;28;20294;-77
2023/04/25 00:03:43;;;;;;;15.23;3.30;;;8.10;99.90;;;;;;5073922;28;20279;-77
2023/04/25 00:06:09;;;;;;;22.00;4.17;;;8.10;99.90;;;;;;5073558;28;20110;-77
2023/04/25 00:08:34;;;;;;;21.07;3.83;;;8.00;99.90;;;;;;5073964;28;20110;-77
2023/04/25 00:11:00;;;;;;;18.57;3.60;;;8.00;99.90;;;;;;5074007;28;20044;-77
2023/04/25 00:13:26;;;;;;;18.17;4.50;;;8.00;99.90;;;;;;5072066;28;20052;-77
2023/04/25 00:15:56;;;;;;;18.97;3.93;;;8.00;99.90;;;;;;5072714;28;20287;-77
2023/04/25 00:18:22;;;;;;;20.10;3.97;;;7.90;99.90;;;;;;5072926;28;20052;-77
2023/04/25 00:20:48;;;;;;;16.67;3.90;;;7.80;99.90;;;;;;5073422;28;20374;-77
2023/04/25 00:23:17;;;;;;;16.53;3.97;;;7.80;99.90;;;;;;5072350;28;20413;-77
2023/04/25 00:25:48;;;;;;;15.07;4.00;;;7.70;99.90;;;;;;5072483;28;20106;-77
2023/04/25 00:28:15;;;;;;;21.77;4.03;;;7.70;99.90;;;;;;5072822;28;20282;-77
2023/04/25 00:30:41;;;;;;;15.10;3.83;;;7.80;99.90;;;;;;5073452;28;20286;-76
2023/04/25 00:33:07;;;;;;;13.50;3.30;;;7.70;99.90;;;;;;5073206;28;20335;-77
2023/04/25 00:35:34;;;;;;;14.60;3.93;;;7.70;99.90;;;;;;5073152;28;20833;-77
2023/04/25 00:38:00;;;;;;;16.23;4.30;;;7.70;99.90;;;;;;5073344;28;20274;-76
2023/04/25 00:40:26;;;;;;;20.17;4.00;;;7.70;99.90;;;;;;5073012;28;20340;-77
2023/04/25 00:42:53;;;;;;;15.80;3.60;;;7.60;99.90;;;;;;5073162;28;20634;-76
2023/04/25 00:45:19;;;;;;;21.30;3.80;;;7.60;99.90;;;;;;5072863;28;20373;-77
2023/04/25 00:47:45;;;;;;;17.80;3.60;;;7.50;99.90;;;;;;5071806;28;20788;-77
2023/04/25 00:50:12;;;;;;;14.60;3.90;;;7.50;99.90;;;;;;5071572;28;20295;-77
2023/04/25 00:52:43;;;;;;;16.43;3.40;;;7.60;99.90;;;;;;5072999;28;20348;-75
2023/04/25 00:55:10;;;;;;;14.80;3.17;;;7.60;99.90;;;;;;5073122;28;20438;-76
2023/04/25 00:57:36;;;;;;;15.63;2.93;;;7.60;99.90;;;;;;5072055;28;20646;-76
2023/04/25 01:00:07;;;;;;;18.10;3.23;;;7.60;99.90;;;;;;5072952;28;20278;-76
2023/04/25 01:02:35;;;;;;;17.83;4.33;;;7.60;99.90;;;;;;5072510;28;20274;-76
2023/04/25 01:05:01;;;;;;;20.93;3.73;;;7.60;99.90;;;;;;5073025;28;20279;-76
2023/04/25 01:07:27;;;;;;;16.13;3.93;;;7.60;99.90;;;;;;5072634;28;20282;-76
2023/04/25 01:09:53;;;;;;;21.27;4.67;;;7.60;99.90;;;;;;5072780;28;20302;-76
2023/04/25 01:12:19;;;;;;;20.03;4.20;;;7.70;99.90;;;;;;5072496;28;20044;-76
2023/04/25 01:14:45;;;;;;;15.67;3.67;;;7.70;99.90;;;;;;5072526;28;20400;-76
2023/04/25 01:17:11;;;;;;;18.77;3.73;;;7.70;99.90;;;;;;5071131;28;20056;-76
2023/04/25 01:19:37;;;;;;;16.53;4.03;;;7.70;99.90;;;;;;5072545;28;20312;-76
2023/04/25 01:22:03;;;;;;;11.23;2.87;;;7.80;99.90;;;;;;5072717;28;20287;-76
2023/04/25 01:24:31;;;;;;;13.93;3.70;;;7.80;99.90;;;;;;5071895;28;20151;-76
2023/04/25 01:26:58;;;;;;;18.53;3.83;;;7.80;99.90;;;;;;5072897;28;20287;-76
2023/04/25 01:29:24;;;;;;;14.10;4.47;;;7.80;99.90;;;;;;5054676;28;20271;-76
2023/04/25 01:31:52;;;;;;;17.50;3.97;;;7.70;99.90;;;;;;5072414;28;20356;-77
2023/04/25 01:34:18;;;;;;;17.07;4.40;;;7.70;99.90;;;;;;5072252;28;20310;-76
2023/04/25 01:36:44;;;;;;;14.67;3.67;;;7.70;99.90;;;;;;5071795;28;20275;-77
2023/04/25 01:39:10;;;;;;;16.87;4.43;;;7.70;99.90;;;;;;5072464;28;20480;-76
2023/04/25 01:41:36;;;;;;;19.27;3.40;;;7.70;99.90;;;;;;5072084;28;20287;-77
2023/04/25 01:44:02;;;;;;;12.77;2.97;;;7.60;99.90;;;;;;5072460;28;20344;-76
2023/04/25 01:46:28;;;;;;;15.23;3.67;;;7.50;99.90;;;;;;5071997;28;20045;-77
2023/04/25 01:48:54;;;;;;;11.53;2.73;;;7.60;99.90;;;;;;5072507;28;20055;-76
2023/04/25 01:51:20;;;;;;;17.70;3.27;;;7.50;99.90;;;;;;5072217;28;20339;-76
2023/04/25 01:53:46;;;;;;;12.00;2.20;;;7.50;99.90;;;;;;5072233;28;20303;-76
2023/04/25 01:56:11;;;;;;;16.20;2.63;;;7.40;99.90;;;;;;5072332;28;20473;-76
2023/04/25 01:58:37;;;;;;;12.00;2.57;;;7.30;99.90;;;;;;5071999;28;20450;-76
2023/04/25 02:01:03;;;;;;;12.03;3.40;;;7.30;99.90;;;;;;5070968;28;20048;-76
2023/04/25 02:03:30;;;;;;;9.13;2.43;;;7.30;99.90;;;;;;5070868;28;20049;-76
2023/04/25 02:05:56;;;;;;;7.33;1.97;;;7.30;99.90;;;;;;5072267;28;20514;-76
2023/04/25 02:08:22;;;;;;;10.03;2.40;;;7.30;99.90;;;;;;5070938;28;20326;-76
2023/04/25 02:10:48;;;;;;;11.93;2.20;;;7.30;99.90;;;;;;5070926;28;20455;-76
2023/04/25 02:13:13;;;;;;;9.57;2.77;;;7.30;99.90;;;;;;5072059;28;20102;-76
2023/04/25 02:15:39;;;;;;;12.53;2.27;;;7.30;99.90;;;;;;5071763;28;20056;-76
2023/04/25 02:18:06;;;;;;;9.00;2.60;;;7.30;99.90;;;;;;5072036;28;20048;-76
2023/04/25 02:20:32;;;;;;;11.13;3.33;;;7.20;99.90;;;;;;5071698;28;20508;-76
2023/04/25 02:22:58;;;;;;;12.50;2.97;;;7.30;99.90;;;;;;5071923;28;20286;-76
2023/04/25 02:25:24;;;;;;;12.57;2.20;;;7.30;99.90;;;;;;5071884;28;20279;-76
2023/04/25 02:27:51;;;;;;;15.17;3.00;;;7.30;99.90;;;;;;5071292;28;20084;-76
2023/04/25 02:30:17;;;;;;;12.20;2.00;;;7.30;99.90;;;;;;5071846;28;20057;-76
2023/04/25 02:32:42;;;;;;;10.83;2.67;;;7.30;99.90;;;;;;5071702;28;20291;-76
2023/04/25 02:35:09;;;;;;;13.27;2.70;;;7.30;99.90;;;;;;5072023;28;20279;-76
2023/04/25 02:37:38;;;;;;;10.50;2.30;;;7.30;99.90;;;;;;5071728;28;20055;-76
2023/04/25 02:40:04;;;;;;;11.77;2.10;;;7.30;99.90;;;;;;5070440;28;20306;-76
2023/04/25 02:42:31;;;;;;;11.30;2.83;;;7.30;99.90;;;;;;5071475;28;20281;-76
2023/04/25 02:44:57;;;;;;;13.93;2.87;;;7.30;99.90;;;;;;5071684;28;20275;-76
2023/04/25 02:47:22;;;;;;;12.60;2.73;;;7.20;99.90;;;;;;5071748;28;20366;-76
2023/04/25 02:49:48;;;;;;;14.03;2.93;;;7.00;99.90;;;;;;5074643;28;20052;-76
2023/04/25 02:52:14;;;;;;;8.63;2.93;;;6.90;99.90;;;;;;5075533;28;20132;-76
2023/04/25 02:54:40;;;;;;;7.17;2.10;;;6.70;99.90;;;;;;5073782;28;20490;-76
2023/04/25 02:57:06;;;;;;;10.20;2.77;;;6.60;99.90;;;;;;5075177;28;20049;-77
2023/04/25 02:59:32;;;;;;;13.73;3.08;;;6.60;99.90;;;;;;5073492;28;20721;-76
2023/04/25 03:01:58;;;;;;;13.60;2.43;;;6.60;99.90;;;;;;5075207;28;20127;-76
2023/04/25 03:04:24;;;;;;;13.53;3.13;;;6.60;99.90;;;;;;5057476;28;20427;-77
2023/04/25 03:06:50;;;;;;;8.53;2.27;;;6.80;99.90;;;;;;5075423;28;20131;-76
2023/04/25 03:09:16;;;;;;;12.07;2.27;;;6.90;99.90;;;;;;5075141;28;20074;-76
2023/04/25 03:11:43;;;;;;;10.70;2.37;;;6.90;99.90;;;;;;5074684;28;20287;-76
2023/04/25 03:14:09;;;;;;;12.53;2.53;;;6.90;99.90;;;;;;5073826;28;20052;-76
2023/04/25 03:16:35;;;;;;;12.00;2.17;;;6.90;99.90;;;;;;5074697;28;20282;-77
2023/04/25 03:19:02;;;;;;;10.90;2.00;;;6.90;99.90;;;;;;5073380;28;20298;-77
2023/04/25 03:21:28;;;;;;;10.00;2.63;;;7.00;99.90;;;;;;5073337;28;20040;-76
2023/04/25 03:23:53;;;;;;;7.80;1.77;;;7.00;99.90;;;;;;5074663;28;20052;-77
2023/04/25 03:26:20;;;;;;;10.50;2.00;;;6.90;99.90;;;;;;5074590;28;20484;-76
2023/04/25 03:28:46;;;;;;;10.60;1.80;;;6.90;99.90;;;;;;5074176;28;20048;-76
2023/04/25 03:31:11;;;;;;;6.77;1.53;;;6.90;99.90;;;;;;5073674;28;20290;-76
2023/04/25 03:33:37;;;;;;;10.73;2.13;;;6.90;99.90;;;;;;5072923;28;20052;-76
2023/04/25 03:36:03;;;;;;;7.00;1.80;;;6.80;99.90;;;;;;5074562;28;20048;-76
2023/04/25 03:38:29;;;;;;;8.90;2.33;;;6.80;99.90;;;;;;5074290;28;20056;-76
2023/04/25 03:40:56;;;;;;;11.10;2.20;;;6.90;99.90;;;;;;5074383;28;20279;-76
2023/04/25 03:43:21;;;;;;;8.83;2.30;;;6.90;99.90;;;;;;5074455;28;20507;-76
2023/04/25 03:45:47;;;;;;;11.17;2.17;;;7.00;99.90;;;;;;5074203;28;20291;-76
2023/04/25 03:48:13;;;;;;;9.00;2.53;;;7.00;99.90;;;;;;5074320;28;20048;-76
2023/04/25 03:50:39;;;;;;;13.13;2.63;;;6.90;99.90;;;;;;5073995;28;20045;-77
2023/04/25 03:53:05;;;;;;;14.07;3.60;;;6.90;99.90;;;;;;5073076;28;20483;-77
2023/04/25 03:55:30;;;;;;;14.37;3.40;;;6.90;99.90;;;;;;5073771;28;20502;-77
2023/04/25 03:57:58;;;;;;;11.50;2.57;;;6.90;99.90;;;;;;5074324;28;20055;-76
2023/04/25 04:00:24;;;;;;;9.73;2.30;;;6.80;99.90;;;;;;5072489;28;20051;-76
2023/04/25 04:02:50;;;;;;;11.43;2.20;;;6.80;99.90;;;;;;5072602;28;20528;-76
2023/04/25 04:05:16;;;;;;;12.30;2.57;;;6.80;99.90;;;;;;5073987;28;20766;-76
2023/04/25 04:07:42;;;;;;;14.27;3.00;;;6.90;99.90;;;;;;5072614;28;20071;-77
2023/04/25 04:10:09;;;;;;;14.90;2.38;;;6.90;99.90;;;;;;5073814;28;20040;-76
2023/04/25 04:12:35;;;;;;;12.70;3.33;;;6.90;99.90;;;;;;5056036;28;20114;-77
2023/04/25 04:15:05;;;;;;;15.17;3.17;;;6.90;99.90;;;;;;5072723;28;20368;-76
2023/04/25 04:17:31;;;;;;;14.83;2.70;;;6.90;99.90;;;;;;5073701;28;20052;-76
2023/04/25 04:19:58;;;;;;;15.35;2.05;;;6.90;99.90;;;;;;5073588;28;20754;-76
2023/04/25 04:22:24;;;;;;;14.10;2.78;;;6.90;99.90;;;;;;5073462;28;20430;-76
2023/04/25 04:24:50;;;;;;;13.80;3.10;;;6.90;99.90;;;;;;5073145;28;20051;-76
2023/04/25 04:27:18;;;;;;;17.50;2.07;;;7.00;99.90;;;;;;5073663;28;20048;-76
2023/04/25 04:29:45;;;;;;;12.07;2.37;;;6.90;99.90;;;;;;5073394;28;20060;-77
2023/04/25 04:32:10;;;;;;;13.32;2.85;;;6.90;99.90;;;;;;5073480;28;20282;-76
2023/04/25 04:34:37;;;;;;;12.43;2.37;;;6.90;99.90;;;;;;5073170;28;20043;-77
2023/04/25 04:37:02;;;;;;;11.07;2.50;;;6.90;99.90;;;;;;5073403;28;20093;-76
2023/04/25 04:39:28;;;;;;;8.83;1.90;;;6.80;99.90;;;;;;5073123;28;20453;-76
2023/04/25 04:41:54;;;;;;;16.07;2.47;;;6.80;99.90;;;;;;5073065;28;20235;-77
2023/04/25 04:44:20;;;;;;;11.63;3.23;;;6.90;99.90;;;;;;5055627;28;20036;-76
2023/04/25 04:46:46;;;;;;;14.43;2.72;;;6.90;99.90;;;;;;5071795;28;20044;-77
2023/04/25 04:49:13;;;;;;;15.30;2.97;;;6.90;99.90;;;;;;5073188;28;20139;-76
2023/04/25 04:51:41;;;;;;;10.75;2.00;;;6.90;99.90;;;;;;5072901;28;20048;-77
2023/04/25 04:54:06;;;;;;;12.63;3.00;;;6.90;99.90;;;;;;5072879;28;20048;-76
2023/04/25 04:56:32;;;;;;;10.30;2.20;;;6.90;99.90;;;;;;5073053;28;20051;-76
2023/04/25 04:58:58;;;;;;;13.83;2.73;;;6.90;99.90;;;;;;5071769;28;20087;-77
2023/04/25 05:01:25;;;;;;;12.90;2.15;;;6.90;99.90;;;;;;5072913;28;20318;-76
2023/04/25 05:03:51;;;;;;;7.75;2.08;;;6.90;99.90;;;;;;5072581;28;20067;-77
2023/04/25 05:06:19;;;;;;;13.33;2.40;;;6.90;99.90;;;;;;5072720;28;20091;-76
2023/04/25 05:08:45;;;;;;;12.32;2.20;;;6.90;99.90;;;;;;5072356;28;20345;-76
2023/04/25 05:11:11;;;;;;;8.23;1.60;;;6.90;99.90;;;;;;5072162;28;20500;-76
2023/04/25 05:13:37;;;;;;;9.03;2.43;;;6.90;99.90;;;;;;5072848;28;20048;-76
2023/04/25 05:16:02;;;;;;;8.17;1.90;;;7.00;99.90;;;;;;5071566;28;20291;-75
2023/04/25 05:18:28;;;;;;;9.60;1.90;;;7.00;99.90;;;;;;5072430;28;20499;-76
2023/04/25 05:20:54;;;;;;;11.20;2.43;;;6.90;99.90;;;;;;5071068;28;20105;-76
2023/04/25 05:23:20;;;;;;;7.10;1.70;;;7.00;99.90;;;;;;5072440;28;20041;-77
2023/04/25 05:25:45;;;;;;;13.50;2.40;;;7.00;99.90;;;;;;5071198;28;20045;-78
2023/04/25 05:28:13;;;;;;;7.27;1.50;;;7.00;99.90;;;;;;5071729;28;20147;-77
2023/04/25 05:30:39;;;;;;;14.13;2.57;;;7.10;99.90;;;;;;5072355;28;20507;-77
2023/04/25 05:33:04;;;;;;;10.37;2.13;;;7.10;99.90;;;;;;5072303;28;20290;-77
2023/04/25 05:35:30;;;;;;;10.23;2.20;;;7.10;99.90;;;;;;5071493;28;20048;-77
2023/04/25 05:37:56;;;;;;;9.90;1.67;;;7.20;99.90;;;;;;5072191;28;20078;-78
2023/04/25 05:40:22;;;;;;;12.67;2.77;;;7.30;99.90;;;;;;5072583;28;20105;-75
2023/04/25 05:42:48;;;;;;;9.27;1.93;;;7.30;99.90;;;;;;5072341;28;20127;-77
2023/04/25 05:45:13;;;;;;;9.97;2.60;;;7.40;99.90;;;;;;5072526;28;20198;-75
2023/04/25 05:47:39;;;;;;;13.53;2.43;;;7.40;99.90;;;;;;5072414;28;20044;-77
2023/04/25 05:50:06;;;;;;;10.57;2.20;;;7.70;99.90;;;;;;5071062;28;20045;-77
2023/04/25 05:52:31;;;;;;;10.37;1.80;;;8.50;99.90;;;;;;5072214;28;20142;-77
2023/04/25 05:54:57;;;;;;;9.10;2.17;;;9.60;99.90;;;;;;5072021;28;20338;-77
2023/04/25 05:57:26;;;;;;;8.40;2.20;;;10.60;99.90;;;;;;5072540;28;20044;-77
2023/04/25 05:59:53;;;;;;;11.73;2.10;;;11.20;99.90;;;;;;5072056;28;20056;-77
2023/04/25 06:02:21;;;;;;;6.83;1.80;;;11.10;99.90;;;;;;5071418;28;20337;-77
2023/04/25 06:04:49;;;;;;;10.90;2.00;;;10.70;99.90;;;;;;5071957;28;20279;-77
2023/04/25 06:07:14;;;;;;;8.73;1.57;;;10.10;99.90;;;;;;5072298;28;20285;-77
2023/04/25 06:09:40;;;;;;;12.80;2.00;;;9.50;99.90;;;;;;5072301;28;20751;-77
2023/04/25 06:12:06;;;;;;;11.57;1.97;;;8.90;99.90;;;;;;5072009;28;20044;-77
2023/04/25 06:14:33;;;;;;;11.30;2.23;;;8.40;99.90;;;;;;5070992;28;20040;-77
2023/04/25 06:16:59;;;;;;;8.13;2.10;;;8.10;99.90;;;;;;5071624;28;20278;-76
2023/04/25 06:19:24;;;;;;;9.47;1.60;;;7.90;99.90;;;;;;5072078;28;20340;-77
2023/04/25 06:21:50;;;;;;;7.27;1.80;;;7.80;99.90;;;;;;5054086;28;20045;-77
2023/04/25 06:24:16;;;;;;;8.17;1.80;;;7.80;99.90;;;;;;5076197;28;20036;-77
2023/04/25 06:26:41;;;;;;;7.30;1.83;;;7.80;99.90;;;;;;5075955;28;20550;-77
2023/04/25 06:29:07;;;;;;;6.27;2.20;;;7.90;99.90;;;;;;5075628;28;20084;-77
2023/04/25 06:31:33;;;;;;;6.47;1.30;;;8.20;99.90;;;;;;5075791;28;20045;-76
2023/04/25 06:33:59;;;;;;;10.23;1.50;;;8.40;99.90;;;;;;5057714;28;20040;-77
2023/04/25 06:36:25;;;;;;;5.73;1.13;;;8.30;99.90;;;;;;5075471;28;20278;-76
2023/04/25 06:38:54;;;;;;;6.13;1.53;;;8.20;99.90;;;;;;5074502;28;20056;-77
2023/04/25 06:41:20;;;;;;;6.03;1.83;;;8.20;99.90;;;;;;5074627;28;20290;-76
2023/04/25 06:43:46;;;;;;;6.80;1.50;;;8.10;99.90;;;;;;5075626;28;20321;-76
2023/04/25 06:46:12;;;;;;;6.37;1.77;;;8.20;99.90;;;;;;5075170;28;20322;-76
2023/04/25 06:48:38;;;;;;;7.43;1.47;;;8.30;99.90;;;;;;5075360;28;20037;-76
2023/04/25 06:51:04;;;;;;;7.20;1.60;;;8.30;99.90;;;;;;5075191;28;20480;-76
2023/04/25 06:53:29;;;;;;;9.27;2.07;;;8.20;99.90;;;;;;5074567;28;20124;-76
2023/04/25 06:55:55;;;;;;;10.90;1.87;;;8.30;99.90;;;;;;5075254;28;20365;-76
2023/04/25 06:58:21;;;;;;;6.20;1.80;;;8.30;99.90;;;;;;5075212;28;20106;-74
2023/04/25 07:00:46;;;;;;;11.13;1.93;;;8.20;99.90;;;;;;5075301;28;20128;-77
2023/04/25 07:03:12;;;;;;;5.63;2.20;;;7.90;99.90;;;;;;5074854;28;20514;-77
2023/04/25 07:05:38;;;;;;;10.40;2.53;;;7.70;99.90;;;;;;5074347;28;20087;-75
2023/04/25 07:08:04;;;;;;;6.97;2.23;;;7.60;99.90;;;;;;5074914;28;20502;-76
2023/04/25 07:10:30;;;;;;;11.43;2.43;;;7.60;99.90;;;;;;5075136;28;20127;-75
2023/04/25 07:12:55;;;;;;;13.60;3.07;;;8.20;99.90;;;;;;5074699;28;20048;-75
2023/04/25 07:15:21;;;;;;;7.70;1.73;;;9.10;99.90;;;;;;5074904;28;20075;-75
2023/04/25 07:17:47;;;;;;;7.83;1.80;;;10.90;99.90;;;;;;5074542;28;20472;-75
2023/04/25 07:20:13;;;;;;;6.80;1.90;;;12.50;99.90;;;;;;5074540;28;20060;-75
2023/04/25 07:22:39;;;;;;;8.80;1.63;;;13.00;99.90;;;;;;5075020;28;20400;-74
2023/04/25 07:25:05;;;;;;;7.77;2.00;;;12.90;99.90;;;;;;5073368;28;20291;-75
2023/04/25 07:27:31;;;;;;;9.73;2.03;;;12.40;99.90;;;;;;5074736;28;20076;-75
2023/04/25 07:29:57;;;;;;;6.27;1.50;;;12.00;99.90;;;;;;5056759;28;20326;-75
2023/04/25 07:32:23;;;;;;;6.53;1.83;;;11.70;99.90;;;;;;5074583;28;20052;-75
2023/04/25 07:34:49;;;;;;;9.90;1.67;;;11.60;99.90;;;;;;5072385;28;20473;-75
2023/04/25 07:37:15;;;;;;;8.27;1.60;;;11.80;99.90;;;;;;5074180;28;20045;-74
2023/04/25 07:39:41;;;;;;;6.63;1.83;;;12.20;99.90;;;;;;5074580;28;20067;-74
2023/04/25 07:42:08;;;;;;;6.30;1.50;;;13.30;99.90;;;;;;5074197;28;20052;-74
2023/04/25 07:44:39;;;;;;;6.17;1.70;;;14.40;98.40;;;;;;5074281;28;20278;-75
2023/04/25 07:47:09;;;;;;;8.70;1.70;;;14.90;99.90;;;;;;5072530;28;20296;-75
2023/04/25 07:49:39;;;;;;;8.07;1.93;;;15.30;99.90;;;;;;5074333;28;20283;-75
2023/04/25 07:52:08;;;;;;;6.47;1.67;;;15.70;99.90;;;;;;5074019;28;20286;-75
2023/04/25 07:54:34;;;;;;;11.53;2.23;;;16.30;99.90;;;;;;5074357;28;20298;-75
2023/04/25 07:57:00;;;;;;;7.43;2.43;;;16.80;99.90;;;;;;5073811;28;20088;-77
2023/04/25 07:59:26;;;;;;;8.77;2.00;;;17.30;99.90;;;;;;5074028;28;20137;-77
2023/04/25 08:01:52;;;;;;;9.90;2.23;;;17.00;99.90;;;;;;5073930;28;20044;-76
2023/04/25 08:04:17;;;;;;;8.43;2.00;;;16.50;99.90;;;;;;5072622;28;20056;-74
2023/04/25 08:06:43;;;;;;;10.30;2.00;;;15.50;98.70;;;;;;5074141;28;20053;-74
2023/04/25 08:09:09;;;;;;;8.00;1.90;;;14.90;98.60;;;;;;5073666;28;20480;-75
2023/04/25 08:11:36;;;;;;;6.63;1.90;;;14.30;98.10;;;;;;5073833;28;20049;-74
2023/04/25 08:14:02;;;;;;;7.77;2.20;;;14.00;99.90;;;;;;5073281;28;20041;-75
2023/04/25 08:16:28;;;;;;;8.83;2.00;;;13.50;99.90;;;;;;5073434;28;20041;-75
2023/04/25 08:18:54;;;;;;;8.57;2.27;;;12.90;99.90;;;;;;5073486;28;20110;-75
2023/04/25 08:21:20;;;;;;;7.80;2.13;;;12.40;99.90;;;;;;5073113;28;20287;-75
2023/04/25 08:23:46;;;;;;;7.17;1.63;;;11.80;99.90;;;;;;5072891;28;20040;-75
2023/04/25 08:26:12;;;;;;;7.20;1.80;;;11.50;99.90;;;;;;5072843;28;20362;-76
2023/04/25 08:28:37;;;;;;;10.30;1.80;;;11.40;99.90;;;;;;5073291;28;20365;-76
2023/04/25 08:31:04;;;;;;;6.73;1.77;;;11.50;99.90;;;;;;5072973;28;20055;-76
2023/04/25 08:33:30;;;;;;;8.63;1.80;;;11.40;99.90;;;;;;5072293;28;20048;-75
2023/04/25 08:35:55;;;;;;;8.90;1.47;;;11.40;99.90;;;;;;5071924;28;20287;-78
2023/04/25 08:38:21;;;;;;;9.87;2.47;;;11.40;99.90;;;;;;5054374;28;20064;-77
2023/04/25 08:40:52;;;;;;;7.70;1.80;;;11.50;99.90;;;;;;5072460;28;20060;-77
2023/04/25 08:43:20;;;;;;;9.63;2.30;;;11.70;99.90;;;;;;5072079;28;20079;-75
2023/04/25 08:45:46;;;;;;;12.77;2.30;;;11.80;99.90;;;;;;5072472;28;20283;-79
2023/04/25 08:48:14;;;;;;;9.40;2.10;;;11.90;99.90;;;;;;5072393;28;20283;-80
2023/04/25 08:50:44;;;;;;;6.93;2.07;;;11.80;99.90;;;;;;5072575;28;20279;-78
2023/04/25 08:53:18;;;;;;;8.47;1.70;;;11.60;99.90;;;;;;5071299;28;20385;-80
2023/04/25 08:55:46;;;;;;;6.83;1.60;;;11.50;99.90;;;;;;5072972;28;20279;-79
2023/04/25 08:58:12;;;;;;;7.60;1.40;;;11.40;99.90;;;;;;5072576;28;20279;-77
2023/04/25 09:00:38;;;;;;;8.17;1.70;;;11.50;99.90;;;;;;5073314;28;20309;-77
2023/04/25 09:03:05;;;;;;;7.50;1.60;;;11.60;99.90;;;;;;5072622;28;20340;-76
2023/04/25 09:05:33;;;;;;;7.77;1.53;;;11.50;99.90;;;;;;5072951;28;20315;-78
2023/04/25 09:08:00;;;;;;;10.13;1.80;;;11.30;99.90;;;;;;5072810;28;20282;-73
2023/04/25 09:10:26;;;;;;;8.37;1.93;;;11.00;99.90;;;;;;5072411;28;20287;-77
2023/04/25 09:13:24;;;;;;;8.93;2.03;;;10.80;99.90;;;;;;5071369;28;20275;-77
2023/04/25 09:15:53;;;;;;;7.73;1.60;;;10.70;99.90;;;;;;5072581;28;20303;-75
2023/04/25 09:18:27;;;;;;;11.03;2.23;;;10.60;99.90;;;;;;5072464;28;20306;-76
2023/04/25 09:20:58;;;;;;;5.20;1.60;;;10.60;99.90;;;;;;5072734;28;20685;-75
2023/04/25 09:23:24;;;;;;;7.53;1.63;;;10.60;99.90;;;;;;5071278;28;20287;-75
2023/04/25 09:25:52;;;;;;;9.17;1.90;;;10.60;99.30;;;;;;5072655;28;20345;-74
2023/04/25 09:28:26;;;;;;;8.50;1.70;;;10.60;99.90;;;;;;5071417;28;20055;-75
2023/04/25 09:30:57;;;;;;;6.73;1.87;;;10.60;99.90;;;;;;5071611;28;20291;-75
2023/04/25 09:33:31;;;;;;;7.43;1.93;;;10.50;99.90;;;;;;5072065;28;20389;-74
2023/04/25 09:36:03;;;;;;;7.23;1.57;;;10.70;99.90;;;;;;5072677;28;20282;-73
2023/04/25 09:38:30;;;;;;;10.20;1.50;;;10.90;99.90;;;;;;5071364;28;20270;-81
2023/04/25 09:40:56;;;;;;;8.17;1.87;;;11.00;99.90;;;;;;5070640;28;20279;-73
2023/04/25 09:43:23;;;;;;;7.93;2.00;;;11.00;99.90;;;;;;5070622;28;20344;-78
2023/04/25 09:45:51;;;;;;;6.70;2.03;;;11.20;99.90;;;;;;5071968;28;20045;-82
2023/04/25 09:48:21;;;;;;;8.40;1.53;;;11.20;99.90;;;;;;5071832;28;20303;-77
2023/04/25 09:51:11;;;;;;;6.30;1.60;;;11.30;99.30;;;;;;5071876;28;20287;-76
2023/04/25 09:53:54;;;;;;;7.37;1.50;;;11.30;95.30;;;;;;5070744;28;20294;-76
2023/04/25 09:56:21;;;;;;;11.63;1.90;;;11.20;96.00;;;;;;5071912;28;20278;-76
2023/04/25 09:58:48;;;;;;;8.57;1.60;;;11.20;99.30;;;;;;5075607;28;20283;-76
2023/04/25 10:01:16;;;;;;;8.17;1.90;;;11.20;99.90;;;;;;5076168;28;20279;-76
2023/04/25 10:03:43;;;;;;;8.00;1.73;;;11.30;99.90;;;;;;5075778;28;20347;-76
2023/04/25 10:06:20;;;;;;;9.20;1.87;;;11.30;99.90;;;;;;5076387;28;20678;-76
2023/04/25 10:08:50;;;;;;;7.43;2.00;;;11.10;99.90;;;;;;5076432;28;20286;-76
2023/04/25 10:11:16;;;;;;;5.67;1.70;;;10.90;99.90;;;;;;5075817;28;20285;-76
2023/04/25 10:13:43;;;;;;;7.87;1.90;;;10.80;99.90;;;;;;5075055;28;20342;-76
2023/04/25 10:16:09;;;;;;;9.60;2.43;;;10.90;99.90;;;;;;5076159;28;20846;-76
2023/04/25 10:18:35;;;;;;;8.33;1.70;;;10.90;99.90;;;;;;5074353;28;20295;-76
2023/04/25 10:21:06;;;;;;;8.33;2.03;;;11.10;99.90;;;;;;5075954;28;20093;-76
2023/04/25 10:23:34;;;;;;;8.20;1.60;;;11.20;99.90;;;;;;5075650;28;20049;-76
2023/04/25 10:26:00;;;;;;;7.63;1.63;;;11.20;99.90;;;;;;5076082;28;20290;-76
2023/04/25 10:28:26;;;;;;;10.47;1.90;;;11.20;99.90;;;;;;5075604;28;20845;-76
2023/04/25 10:31:07;;;;;;;6.13;1.80;;;11.20;99.90;;;;;;5075869;28;20370;-76
2023/04/25 10:33:41;;;;;;;6.93;1.60;;;11.00;99.90;;;;;;5075419;28;20044;-76
2023/04/25 10:36:13;;;;;;;6.63;1.45;;;10.90;99.90;;;;;;5075719;28;20810;-76
2023/04/25 10:38:39;;;;;;;9.23;1.80;;;10.80;99.90;;;;;;5075496;28;20488;-76
2023/04/25 10:41:09;;;;;;;7.07;2.03;;;10.80;99.90;;;;;;5075608;28;20290;-76
2023/04/25 10:43:37;;;;;;;8.17;1.80;;;10.70;99.90;;;;;;5075230;28;20275;-76
2023/04/25 10:46:12;;;;;;;7.70;1.40;;;10.70;99.90;;;;;;5075467;28;20623;-76
2023/04/25 10:48:50;;;;;;;9.47;1.87;;;10.70;99.90;;;;;;5075261;28;20293;-76
2023/04/25 10:51:25;;;;;;;9.73;2.10;;;10.60;99.90;;;;;;5075671;28;20278;-76
2023/04/25 10:53:57;;;;;;;12.75;2.15;;;10.40;99.90;;;;;;5075439;28;20299;-76
2023/04/25 10:56:29;;;;;;;7.07;1.77;;;10.30;99.90;;;;;;5075096;28;20044;-76
2023/04/25 10:59:15;;;;;;;8.40;2.03;;;10.20;99.90;;;;;;5075542;28;20286;-76
2023/04/25 11:01:45;;;;;;;;;;;10.10;99.90;;;;;;5075711;28;20283;-76
2023/04/25 11:04:22;;;;;;;5.77;1.93;;;9.90;99.90;;;;;;5075252;28;19927;-75
2023/04/25 11:07:03;;;;;;;7.57;1.77;;;9.80;99.90;;;;;;5075151;28;20662;-75
2023/04/25 11:09:29;;;;;;;9.13;2.20;;;9.80;99.90;;;;;;5072614;28;20649;-75
2023/04/25 11:11:59;;;;;;;8.10;2.37;;;9.90;99.90;;;;;;5075177;28;20287;-75
2023/04/25 11:14:26;;;;;;;19.50;3.23;;;10.00;99.90;;;;;;5074728;28;20330;-76
2023/04/25 11:16:59;;;;;;;8.57;1.70;;;10.00;99.90;;;;;;5074873;28;20314;-75
2023/04/25 11:19:26;;;;;;;6.47;1.70;;;9.80;99.90;;;;;;5074667;28;20279;-81
2023/04/25 11:21:59;;;;;;;8.00;2.23;;;9.80;99.90;;;;;;5075613;28;20279;-78
2023/04/25 11:24:27;;;;;;;11.20;2.20;;;9.80;99.90;;;;;;5074437;28;20279;-79
2023/04/25 11:26:53;;;;;;;7.43;2.10;;;9.80;99.90;;;;;;5074812;28;20376;-77
2023/04/25 11:29:26;;;;;;;9.57;1.60;;;9.90;99.90;;;;;;5074757;28;20333;-75
2023/04/25 11:31:53;;;;;;;7.37;1.60;;;9.90;99.90;;;;;;5074746;28;20048;-75
2023/04/25 11:34:19;;;;;;;9.83;2.37;;;10.00;99.90;;;;;;5074429;28;20705;-75
2023/04/25 11:36:45;;;;;;;7.50;1.93;;;10.10;99.90;;;;;;5074166;28;20370;-75
2023/04/25 11:39:12;;;;;;;7.37;1.83;;;10.10;99.90;;;;;;5074601;28;20472;-75
2023/04/25 11:41:38;;;;;;;6.43;1.70;;;10.10;99.90;;;;;;5074199;28;20789;-76
2023/04/25 11:44:05;;;;;;;7.23;1.73;;;10.10;99.90;;;;;;5074506;28;20701;-76
2023/04/25 11:46:34;;;;;;;5.40;1.43;;;10.10;99.90;;;;;;5074233;28;20612;-76
2023/04/25 11:49:00;;;;;;;6.90;1.40;;;10.00;99.90;;;;;;5074253;28;20371;-72
2023/04/25 11:51:26;;;;;;;7.67;1.93;;;10.00;99.90;;;;;;5073928;28;20315;-78
2023/04/25 11:53:52;;;;;;;8.27;1.70;;;9.90;99.90;;;;;;5074263;28;20123;-75
2023/04/25 11:56:17;;;;;;;7.83;1.50;;;9.80;99.90;;;;;;5074397;28;20374;-85
2023/04/25 11:59:04;;;;;;;7.37;1.93;;;9.80;99.90;;;;;;5056250;28;20299;-78
2023/04/25 12:01:32;;;;;;;7.20;1.77;;;9.80;99.90;;;;;;5073693;28;20087;-77
2023/04/25 12:03:58;;;;;;;6.93;1.90;;;9.80;99.90;;;;;;5074197;28;20283;-78
2023/04/25 12:06:28;;;;;;;8.97;1.70;;;9.70;99.90;;;;;;5074098;28;20294;-78
2023/04/25 12:09:01;;;;;;;5.57;1.23;;;9.60;99.90;;;;;;5073601;28;20290;-77
2023/04/25 12:11:27;;;;;;;4.20;1.00;;;9.70;99.90;;;;;;5073346;28;20634;-80
2023/04/25 12:13:53;;;;;;;6.83;1.50;;;9.70;99.90;;;;;;5073194;28;20290;-77
2023/04/25 12:16:19;;;;;;;8.13;1.97;;;9.80;99.90;;;;;;5071957;28;20113;-77
2023/04/25 12:18:45;;;;;;;7.37;1.77;;;9.80;99.90;;;;;;5072728;28;20337;-77
2023/04/25 12:21:11;;;;;;;9.70;1.90;;;9.80;99.90;;;;;;5071661;28;20060;-77
2023/04/25 12:23:39;;;;;;;11.30;2.77;;;9.80;99.90;;;;;;5071808;28;20437;-76
2023/04/25 12:26:05;;;;;;;6.77;1.70;;;9.80;99.90;;;;;;5072976;28;20630;-76
2023/04/25 12:28:33;;;;;;;9.87;1.90;;;9.80;99.90;;;;;;5072513;28;20371;-75
2023/04/25 12:31:05;;;;;;;9.47;1.63;;;10.00;99.90;;;;;;5073338;28;20052;-77
2023/04/25 12:33:33;;;;;;;8.87;1.97;;;10.10;99.90;;;;;;5072067;28;20415;-81
2023/04/25 12:36:03;;;;;;;8.27;2.20;;;10.20;99.90;;;;;;5072440;28;20345;-85
2023/04/25 12:38:31;;;;;;;9.17;2.07;;;10.30;99.90;;;;;;5072448;28;20286;-85
2023/04/25 12:40:58;;;;;;;6.30;1.93;;;10.30;99.90;;;;;;5073124;28;20299;-80
2023/04/25 12:43:24;;;;;;;9.03;2.10;;;10.30;99.90;;;;;;5071933;28;20279;-82
2023/04/25 12:45:54;;;;;;;7.00;1.33;;;10.20;99.90;;;;;;5072117;28;20302;-83
2023/04/25 12:48:20;;;;;;;5.97;1.30;;;10.20;99.90;;;;;;5073271;28;20302;-84